Terminal Aerodrome Forecast
Issued by NWS

Home | Current Version | Previous Version | Text Only | Print | Product List | Glossary On
Versions: 1 2 3 4 5 6 7 8 9 10 11 12 13 14 15 16 17 18 19
000
FTUS42 KMLB 240951 CCA
TAFLEE
TAF COR
KLEE 240951Z 2410/2506 29004KT P6SM VCSH BKN008 OVC018
     FM241200 30005KT P6SM BKN018
     FM241400 31005KT P6SM SCT025 BKN050
     FM242200 32006KT P6SM SKC=

USA.gov is the U.S. government's official web portal to all federal, state and local government web resources and services.